Salmon Gums RES. Station, Western Australia

8:42 AM AWST on July 26, 2016 (GMT +0800)
Esperance | | Change Station

Elev 469 ft 33.68 °S, 121.82 °E | Updated 11 minutes ago

Overcast
Overcast
50 °F
Feels Like 50 °F
N
16
Wind Variable Wind from West

Today
High -- | Low -- °F
--% Chance of Precip.
Yesterday
High -- | Low -- °F
Precip. -- in
Pressure 30.27 in
Visibility 3.7 miles
Clouds Mostly Cloudy 1000 ft
Mostly Cloudy 1600 ft
Overcast 2400 ft
Dew Point 48 °F
Humidity 94%
Rainfall 0.00 in
Snow Depth Not available.
6:48 AM 5:11 PM
Waning Gibbous, 61% visible
SPECI YESP 260031Z AUTO 27014KT 6000 // BKN010 BKN016 OVC024 10/09 Q1025
Pressure 30.27 in
Visibility 3.7 miles
Clouds Mostly Cloudy 1000 ft
Mostly Cloudy 1600 ft
Overcast 2400 ft
Dew Point 48 °F
Humidity 94%
Rainfall 0.00 in
Snow Depth Not available.
6:48 AM 5:11 PM
Waning Gibbous, 61% visible
SPECI YESP 260031Z AUTO 27014KT 6000 // BKN010 BKN016 OVC024 10/09 Q1025

10-Day Weather Forecast

Almanac

Astronomy

Jul. 26, 2016 Rise Set
Actual Time
Civil Twilight
Nautical Twilight
Astronomical Twilight
Moon
Length of Visible Light
Length of Day
Tomorrow will be .
, % of the Moon is Illuminated

Today's Extremes

Country Highs Country Lows

Community

WunderPhotos

Upload Photos

1,927,479 photos uploaded!

WunderBlog® & News

Nearby

Air Quality

  Air Quality AQ Index Pollutant
Not available.

Snow Depth

Station Depth Elevation

Earthquake Activity

City Distance Mag. Time & Date
Minimum magnitude displayed is 2.5.

Coastal Water Temperatures

Place Temperature

Stations

Nearby Weather Stations

Station Location Temp. Windchill Dew Point Humidity Wind Precip. Elev Updated Type